Time,TemperatureF,DewpointF,PressureIn,WindDirection,WindDirectionDegrees,WindSpeedMPH,WindSpeedGustMPH,Humidity,HourlyPrecipIn,Conditions,Clouds,dailyrainin,SolarRadiationWatts/m^2,SoftwareType,DateUTC
2013-04-06 00:02:00,61.0,24.0,-100.00,NW,310,16.0,25.0,24,0.00,,,0.00,0.000000,,2013-04-06 07:02:00,
2013-04-06 00:12:00,61.0,24.0,-100.00,NW,310,16.0,25.0,24,0.00,,,0.00,0.000000,,2013-04-06 07:12:00,
2013-04-06 00:22:00,61.0,24.0,-100.00,NW,310,16.0,25.0,24,0.00,,,0.00,0.000000,,2013-04-06 07:22:00,
2013-04-06 00:53:00,63.0,24.0,-100.00,NW,309,8.0,28.0,22,0.00,,,0.00,0.000000,,2013-04-06 07:53:00,
2013-04-06 01:02:00,63.0,24.0,-100.00,NW,309,8.0,28.0,22,0.00,,,0.00,0.000000,,2013-04-06 08:02:00,
2013-04-06 01:12:00,63.0,24.0,-100.00,NW,309,8.0,28.0,22,0.00,,,0.00,0.000000,,2013-04-06 08:12:00,
2013-04-06 01:22:00,63.0,24.0,-100.00,NW,309,8.0,28.0,22,0.00,,,0.00,0.000000,,2013-04-06 08:22:00,
2013-04-06 01:52:00,58.0,28.0,-100.00,South,178,3.0,7.0,31,0.00,,,0.00,0.000000,,2013-04-06 08:52:00,
2013-04-06 02:02:00,58.0,28.0,-100.00,South,178,3.0,7.0,31,0.00,,,0.00,0.000000,,2013-04-06 09:02:00,
2013-04-06 02:12:00,58.0,28.0,-100.00,South,178,3.0,7.0,31,0.00,,,0.00,0.000000,,2013-04-06 09:12:00,
2013-04-06 02:22:00,58.0,28.0,-100.00,South,178,3.0,7.0,31,0.00,,,0.00,0.000000,,2013-04-06 09:22:00,
2013-04-06 02:53:00,61.0,18.0,-100.00,SSW,197,4.0,17.0,19,0.00,,,0.00,0.000000,,2013-04-06 09:53:00,
2013-04-06 03:53:00,58.0,24.0,-100.00,SSE,164,1.0,8.0,27,0.00,,,0.00,0.000000,,2013-04-06 10:53:00,
2013-04-06 04:02:00,58.0,24.0,-100.00,SSE,164,1.0,8.0,27,0.00,,,0.00,0.000000,,2013-04-06 11:02:00,
2013-04-06 04:12:00,58.0,24.0,-100.00,SSE,164,1.0,8.0,27,0.00,,,0.00,0.000000,,2013-04-06 11:12:00,
2013-04-06 04:22:00,58.0,24.0,-100.00,SSE,164,1.0,8.0,27,0.00,,,0.00,0.000000,,2013-04-06 11:22:00,
2013-04-06 04:52:00,61.0,23.0,-100.00,WNW,303,13.0,20.0,23,0.00,,,0.00,0.000000,,2013-04-06 11:52:00,
2013-04-06 05:02:00,61.0,23.0,-100.00,WNW,303,13.0,20.0,23,0.00,,,0.00,0.000000,,2013-04-06 12:02:00,
2013-04-06 05:12:00,61.0,23.0,-100.00,WNW,303,13.0,20.0,23,0.00,,,0.00,0.000000,,2013-04-06 12:12:00,
2013-04-06 05:21:00,61.0,23.0,-100.00,WNW,303,13.0,20.0,23,0.00,,,0.00,0.000000,,2013-04-06 12:21:00,
2013-04-06 05:52:00,58.0,23.0,-100.00,SW,234,4.0,16.0,26,0.00,,,0.00,0.000000,,2013-04-06 12:52:00,
2013-04-06 06:02:00,58.0,23.0,-100.00,SW,234,4.0,16.0,26,0.00,,,0.00,0.000000,,2013-04-06 13:02:00,
2013-04-06 06:12:00,58.0,23.0,-100.00,SW,234,4.0,16.0,26,0.00,,,0.00,0.000000,,2013-04-06 13:12:00,
2013-04-06 06:23:00,58.0,23.0,-100.00,SW,234,4.0,16.0,26,0.00,,,0.00,0.000000,,2013-04-06 13:23:00,
2013-04-06 06:53:00,54.0,24.0,-100.00,West,269,0.0,4.0,31,0.00,,,0.00,0.000000,,2013-04-06 13:53:00,
2013-04-06 07:03:00,54.0,24.0,-100.00,West,269,0.0,4.0,31,0.00,,,0.00,0.000000,,2013-04-06 14:03:00,
2013-04-06 07:12:00,54.0,24.0,-100.00,West,269,0.0,4.0,31,0.00,,,0.00,0.000000,,2013-04-06 14:12:00,
2013-04-06 07:22:00,54.0,24.0,-100.00,West,269,0.0,4.0,31,0.00,,,0.00,0.000000,,2013-04-06 14:22:00,
2013-04-06 08:53:00,64.0,26.0,-100.00,ENE,73,0.0,7.0,24,-99.99,,,0.00,349.000000,,2013-04-06 15:53:00,
2013-04-06 09:04:00,64.0,26.0,-100.00,ENE,73,0.0,7.0,24,-99.99,,,0.00,349.000000,,2013-04-06 16:04:00,
2013-04-06 09:53:00,64.0,29.0,-100.00,East,85,0.0,5.0,27,-99.99,,,0.00,478.000000,,2013-04-06 16:53:00,
2013-04-06 10:02:00,64.0,29.0,-100.00,East,85,0.0,5.0,27,-99.99,,,0.00,478.000000,,2013-04-06 17:02:00,
2013-04-06 10:12:00,64.0,29.0,-100.00,East,85,0.0,5.0,27,-99.99,,,0.00,478.000000,,2013-04-06 17:12:00,
2013-04-06 10:22:00,64.0,29.0,-100.00,East,85,0.0,5.0,27,-99.99,,,0.00,478.000000,,2013-04-06 17:22:00,
2013-04-06 10:52:00,64.0,29.0,-100.00,SSE,162,0.0,4.0,27,0.00,,,0.00,421.000000,,2013-04-06 17:52:00,
2013-04-06 11:02:00,64.0,29.0,-100.00,SSE,162,0.0,4.0,27,0.00,,,0.00,421.000000,,2013-04-06 18:02:00,
2013-04-06 11:12:00,64.0,29.0,-100.00,SSE,162,0.0,4.0,27,0.00,,,0.00,421.000000,,2013-04-06 18:12:00,
2013-04-06 11:52:00,64.0,24.0,-100.00,SE,136,2.0,6.0,22,0.00,,,0.00,524.000000,,2013-04-06 18:52:00,
2013-04-06 12:02:00,64.0,24.0,-100.00,SE,136,2.0,6.0,22,0.00,,,0.00,524.000000,,2013-04-06 19:02:00,
2013-04-06 12:12:00,64.0,24.0,-100.00,SE,136,2.0,6.0,22,0.00,,,0.00,524.000000,,2013-04-06 19:12:00,
2013-04-06 12:22:00,64.0,24.0,-100.00,SE,136,2.0,6.0,22,0.00,,,0.00,524.000000,,2013-04-06 19:22:00,
2013-04-06 12:53:00,67.0,22.0,-100.00,SSE,156,5.0,11.0,18,0.00,,,0.00,696.000000,,2013-04-06 19:53:00,
2013-04-06 13:02:00,67.0,22.0,-100.00,SSE,156,5.0,11.0,18,0.00,,,0.00,696.000000,,2013-04-06 20:02:00,
2013-04-06 13:12:00,67.0,22.0,-100.00,SSE,156,5.0,11.0,18,0.00,,,0.00,696.000000,,2013-04-06 20:12:00,
2013-04-06 13:22:00,67.0,22.0,-100.00,SSE,156,5.0,11.0,18,0.00,,,0.00,696.000000,,2013-04-06 20:22:00,
2013-04-06 13:52:00,71.0,21.0,-100.00,SE,130,3.0,11.0,15,0.00,,,0.00,1021.000000,,2013-04-06 20:52:00,
2013-04-06 14:02:00,71.0,21.0,-100.00,SE,130,3.0,11.0,15,0.00,,,0.00,1021.000000,,2013-04-06 21:02:00,
2013-04-06 14:12:00,71.0,21.0,-100.00,SE,130,3.0,11.0,15,0.00,,,0.00,1021.000000,,2013-04-06 21:12:00,
2013-04-06 14:22:00,71.0,21.0,-100.00,SE,130,3.0,11.0,15,0.00,,,0.00,1021.000000,,2013-04-06 21:22:00,
2013-04-06 14:53:00,72.0,25.0,-100.00,SE,134,9.0,16.0,17,0.00,,,0.00,857.000000,,2013-04-06 21:53:00,
2013-04-06 15:02:00,72.0,25.0,-100.00,SE,134,9.0,16.0,17,0.00,,,0.00,857.000000,,2013-04-06 22:02:00,
2013-04-06 15:13:00,72.0,25.0,-100.00,SE,134,9.0,16.0,17,0.00,,,0.00,857.000000,,2013-04-06 22:13:00,
2013-04-06 15:22:00,72.0,25.0,-100.00,SE,134,9.0,16.0,17,0.00,,,0.00,857.000000,,2013-04-06 22:22:00,
2013-04-06 15:53:00,76.0,31.0,-100.00,WSW,239,8.0,24.0,19,0.00,,,0.00,1048.000000,,2013-04-06 22:53:00,
2013-04-06 16:03:00,76.0,31.0,-100.00,WSW,239,8.0,24.0,19,0.00,,,0.00,1048.000000,,2013-04-06 23:03:00,
2013-04-06 16:13:00,76.0,31.0,-100.00,WSW,239,8.0,24.0,19,0.00,,,0.00,1048.000000,,2013-04-06 23:13:00,
2013-04-06 16:22:00,76.0,31.0,-100.00,WSW,239,8.0,24.0,19,0.00,,,0.00,1048.000000,,2013-04-06 23:22:00,
2013-04-06 16:53:00,71.0,34.0,-100.00,WNW,286,10.0,21.0,26,0.00,,,0.00,856.000000,,2013-04-06 23:53:00,
2013-04-06 17:02:00,71.0,34.0,-100.00,WNW,286,10.0,21.0,26,0.00,,,0.00,856.000000,,2013-04-07 00:02:00,
2013-04-06 17:12:00,71.0,34.0,-100.00,WNW,286,10.0,21.0,26,0.00,,,0.00,856.000000,,2013-04-07 00:12:00,
2013-04-06 17:22:00,71.0,34.0,-100.00,WNW,286,10.0,21.0,26,0.00,,,0.00,856.000000,,2013-04-07 00:22:00,
2013-04-06 17:53:00,66.0,32.0,-100.00,West,274,14.0,24.0,28,0.00,,,0.00,603.000000,,2013-04-07 00:53:00,
2013-04-06 18:02:00,66.0,32.0,-100.00,West,274,14.0,24.0,28,0.00,,,0.00,603.000000,,2013-04-07 01:02:00,
2013-04-06 18:12:00,66.0,32.0,-100.00,West,274,14.0,24.0,28,0.00,,,0.00,603.000000,,2013-04-07 01:12:00,
2013-04-06 18:22:00,66.0,32.0,-100.00,West,274,14.0,24.0,28,0.00,,,0.00,603.000000,,2013-04-07 01:22:00,
2013-04-06 18:53:00,66.0,32.0,-100.00,West,266,15.0,26.0,28,0.00,,,0.00,199.000000,,2013-04-07 01:53:00,
2013-04-06 19:02:00,66.0,32.0,-100.00,West,266,15.0,26.0,28,0.00,,,0.00,199.000000,,2013-04-07 02:02:00,
2013-04-06 19:12:00,66.0,32.0,-100.00,West,266,15.0,26.0,28,0.00,,,0.00,199.000000,,2013-04-07 02:12:00,
2013-04-06 19:22:00,66.0,32.0,-100.00,West,266,15.0,26.0,28,0.00,,,0.00,199.000000,,2013-04-07 02:22:00,
2013-04-06 19:52:00,64.0,27.0,-100.00,West,280,12.0,24.0,25,0.00,,,0.00,35.000000,,2013-04-07 02:52:00,
2013-04-06 20:02:00,64.0,27.0,-100.00,West,280,12.0,24.0,25,0.00,,,0.00,35.000000,,2013-04-07 03:02:00,
2013-04-06 20:12:00,64.0,27.0,-100.00,West,280,12.0,24.0,25,0.00,,,0.00,35.000000,,2013-04-07 03:12:00,
2013-04-06 20:22:00,64.0,27.0,-100.00,West,280,12.0,24.0,25,0.00,,,0.00,35.000000,,2013-04-07 03:22:00,
2013-04-06 20:54:00,64.0,27.0,-100.00,WNW,289,12.0,27.0,25,0.00,,,0.00,0.000000,,2013-04-07 03:54:00,
2013-04-06 21:03:00,64.0,27.0,-100.00,WNW,289,12.0,27.0,25,0.00,,,0.00,0.000000,,2013-04-07 04:03:00,
2013-04-06 21:13:00,64.0,27.0,-100.00,WNW,289,12.0,27.0,25,0.00,,,0.00,0.000000,,2013-04-07 04:13:00,
2013-04-06 21:23:00,64.0,27.0,-100.00,WNW,289,12.0,27.0,25,0.00,,,0.00,0.000000,,2013-04-07 04:23:00,
2013-04-06 21:53:00,65.0,29.0,-100.00,WNW,298,14.0,25.0,26,0.00,,,0.00,0.000000,,2013-04-07 04:53:00,
2013-04-06 22:02:00,65.0,29.0,-100.00,WNW,298,14.0,25.0,26,0.00,,,0.00,0.000000,,2013-04-07 05:02:00,
2013-04-06 22:12:00,65.0,29.0,-100.00,WNW,298,14.0,25.0,26,0.00,,,0.00,0.000000,,2013-04-07 05:12:00,
2013-04-06 22:22:00,65.0,29.0,-100.00,WNW,298,14.0,25.0,26,0.00,,,0.00,0.000000,,2013-04-07 05:22:00,
2013-04-06 22:52:00,64.0,25.0,-100.00,WNW,302,9.0,23.0,23,0.00,,,0.00,0.000000,,2013-04-07 05:52:00,
2013-04-06 23:02:00,64.0,25.0,-100.00,WNW,302,9.0,23.0,23,0.00,,,0.00,0.000000,,2013-04-07 06:02:00,
2013-04-06 23:12:00,64.0,25.0,-100.00,WNW,302,9.0,23.0,23,0.00,,,0.00,0.000000,,2013-04-07 06:12:00,
2013-04-06 23:22:00,64.0,25.0,-100.00,WNW,302,9.0,23.0,23,0.00,,,0.00,0.000000,,2013-04-07 06:22:00,
2013-04-06 23:52:00,65.0,28.0,-100.00,NW,309,16.0,24.0,25,0.00,,,0.00,0.000000,,2013-04-07 06:52:00,